createdAt,value
2019-02-14T00:00:54.138Z,8.67
2019-02-14T00:03:21.234Z,11.20
2019-02-14T00:05:48.432Z,9.80
2019-02-14T00:08:15.637Z,9.77
2019-02-14T00:10:42.804Z,8.40
2019-02-14T00:13:10.010Z,9.27
2019-02-14T00:15:37.482Z,8.73
2019-02-14T00:18:04.627Z,9.97
2019-02-14T00:20:32.069Z,9.17
2019-02-14T00:22:59.220Z,9.03
2019-02-14T00:25:26.376Z,9.70
2019-02-14T00:27:53.992Z,9.57
2019-02-14T00:30:21.459Z,10.93
2019-02-14T00:32:48.508Z,10.07
2019-02-14T00:35:15.917Z,10.33
2019-02-14T00:37:43.071Z,9.40
2019-02-14T00:40:10.149Z,9.23
2019-02-14T00:42:37.360Z,9.43
2019-02-14T00:45:04.818Z,10.07
2019-02-14T00:47:31.863Z,10.27
2019-02-14T00:49:59.065Z,8.77
2019-02-14T00:52:26.238Z,8.97
2019-02-14T00:54:53.474Z,8.40
2019-02-14T00:57:20.689Z,9.53
2019-02-14T00:59:47.845Z,10.20
2019-02-14T01:02:15.051Z,9.40
2019-02-14T01:04:42.224Z,10.03
2019-02-14T01:07:09.409Z,10.30
2019-02-14T01:09:36.837Z,9.10
2019-02-14T01:12:04.342Z,10.60
2019-02-14T01:14:31.797Z,10.07
2019-02-14T01:16:58.884Z,9.50
2019-02-14T01:19:26.091Z,9.63
2019-02-14T01:21:53.216Z,9.93
2019-02-14T01:24:20.388Z,9.03
2019-02-14T01:26:47.910Z,8.80
2019-02-14T01:29:15.348Z,9.83
2019-02-14T01:31:42.553Z,10.00
2019-02-14T01:34:10.036Z,10.00
2019-02-14T01:36:37.199Z,10.07
2019-02-14T01:39:05.259Z,9.37
2019-02-14T01:41:32.432Z,10.67
2019-02-14T01:43:59.922Z,9.17
2019-02-14T01:46:27.081Z,9.83
2019-02-14T01:48:54.268Z,9.30
2019-02-14T01:51:22.866Z,10.20
2019-02-14T01:53:50.077Z,9.73
2019-02-14T01:56:17.304Z,9.20
2019-02-14T01:58:44.464Z,9.63
2019-02-14T02:01:11.848Z,9.97
2019-02-14T02:03:39.034Z,9.50
2019-02-14T02:06:06.150Z,9.57
2019-02-14T02:08:33.514Z,9.90
2019-02-14T02:11:00.825Z,8.50
2019-02-14T02:13:28.252Z,9.17
2019-02-14T02:15:55.443Z,9.10
2019-02-14T02:18:22.946Z,9.40
2019-02-14T02:20:50.012Z,8.83
2019-02-14T02:23:17.217Z,9.77
2019-02-14T02:25:44.555Z,10.20
2019-02-14T02:28:11.737Z,9.00
2019-02-14T02:30:38.875Z,9.93
2019-02-14T02:33:06.067Z,9.00
2019-02-14T02:35:33.398Z,9.30
2019-02-14T02:38:00.908Z,9.20
2019-02-14T02:40:28.085Z,8.30
2019-02-14T02:42:55.304Z,8.60
2019-02-14T02:45:22.374Z,8.30
2019-02-14T02:47:49.441Z,9.00
2019-02-14T02:50:16.498Z,9.53
2019-02-14T02:52:44.147Z,9.33
2019-02-14T02:55:11.290Z,10.17
2019-02-14T02:57:38.467Z,10.53
2019-02-14T03:00:09.587Z,8.13
2019-02-14T03:02:36.763Z,9.73
2019-02-14T03:05:04.589Z,8.40
2019-02-14T03:07:31.898Z,9.67
2019-02-14T03:09:59.070Z,9.07
2019-02-14T03:12:26.524Z,8.50
2019-02-14T03:14:53.697Z,9.20
2019-02-14T03:17:20.880Z,8.93
2019-02-14T03:19:48.022Z,7.93
2019-02-14T03:22:15.196Z,9.10
2019-02-14T03:24:42.428Z,8.17
2019-02-14T03:27:09.504Z,8.60
2019-02-14T03:29:36.661Z,9.60
2019-02-14T03:32:04.086Z,9.73
2019-02-14T03:34:31.216Z,8.47
2019-02-14T03:36:58.640Z,9.23
2019-02-14T03:39:25.846Z,7.90
2019-02-14T03:41:53.200Z,8.17
2019-02-14T03:44:20.620Z,8.43
2019-02-14T03:46:47.845Z,8.13
2019-02-14T03:49:14.995Z,7.07
2019-02-14T03:51:42.144Z,8.07
2019-02-14T03:54:09.364Z,8.60
2019-02-14T03:56:36.852Z,7.47
2019-02-14T03:59:04.071Z,7.80
2019-02-14T04:01:31.338Z,8.17
2019-02-14T04:03:58.510Z,7.10
2019-02-14T04:06:27.380Z,8.50
2019-02-14T04:08:54.658Z,7.70
2019-02-14T04:11:21.786Z,8.30
2019-02-14T04:13:48.876Z,9.37
2019-02-14T04:16:16.037Z,8.70
2019-02-14T04:18:43.212Z,8.60
2019-02-14T04:21:10.349Z,8.77
2019-02-14T04:23:37.551Z,8.50
2019-02-14T04:26:04.770Z,8.30
2019-02-14T04:28:32.043Z,8.80
2019-02-14T04:30:59.241Z,8.73
2019-02-14T04:33:26.431Z,8.80
2019-02-14T04:35:53.588Z,8.70
2019-02-14T04:38:20.762Z,7.70
2019-02-14T04:40:47.943Z,8.97
2019-02-14T04:43:15.114Z,8.47
2019-02-14T04:45:42.211Z,8.27
2019-02-14T04:48:09.258Z,8.17
2019-02-14T04:50:36.304Z,8.43
2019-02-14T04:53:03.649Z,8.10
2019-02-14T04:55:30.941Z,7.30
2019-02-14T04:57:58.447Z,7.90
2019-02-14T05:00:25.684Z,7.83
2019-02-14T05:02:52.871Z,8.00
2019-02-14T05:05:20.050Z,9.10
2019-02-14T05:07:47.230Z,8.30
2019-02-14T05:10:14.385Z,8.03
2019-02-14T05:12:41.560Z,9.40
2019-02-14T05:15:08.801Z,8.03
2019-02-14T05:17:35.837Z,8.43
2019-02-14T05:20:03.385Z,9.67
2019-02-14T05:22:30.890Z,8.10
2019-02-14T05:24:58.340Z,7.83
2019-02-14T05:27:25.535Z,7.60
2019-02-14T05:29:52.729Z,7.63
2019-02-14T05:32:19.912Z,8.00
2019-02-14T05:34:47.058Z,9.27
2019-02-14T05:37:14.150Z,9.30
2019-02-14T05:39:41.334Z,8.70
2019-02-14T05:42:08.491Z,8.70
2019-02-14T05:44:35.739Z,7.63
2019-02-14T05:47:02.795Z,9.30
2019-02-14T05:49:29.983Z,7.13
2019-02-14T05:51:57.199Z,7.43
2019-02-14T05:54:24.405Z,7.23
2019-02-14T05:56:51.553Z,7.50
2019-02-14T05:59:18.798Z,8.17
2019-02-14T06:01:46.041Z,8.10
2019-02-14T06:04:13.233Z,8.13
2019-02-14T06:06:40.453Z,7.53
2019-02-14T06:09:07.647Z,7.83
2019-02-14T06:11:34.832Z,7.70
2019-02-14T06:14:01.961Z,7.77
2019-02-14T06:16:29.204Z,7.90
2019-02-14T06:18:56.639Z,8.33
2019-02-14T06:21:23.819Z,7.40
2019-02-14T06:23:51.016Z,9.00
2019-02-14T06:26:18.201Z,10.07
2019-02-14T06:28:45.463Z,7.53
2019-02-14T06:31:12.604Z,8.30
2019-02-14T06:33:39.764Z,8.80
2019-02-14T06:36:06.852Z,8.63
2019-02-14T06:38:34.059Z,8.40
2019-02-14T06:41:01.220Z,8.43
2019-02-14T06:43:28.444Z,7.70
2019-02-14T06:45:55.688Z,8.53
2019-02-14T06:48:22.899Z,8.57
2019-02-14T06:50:50.104Z,8.40
2019-02-14T06:53:17.368Z,7.50
2019-02-14T06:55:44.747Z,8.20
2019-02-14T06:58:12.881Z,8.50
2019-02-14T07:00:40.260Z,7.30
2019-02-14T07:03:07.504Z,8.00
2019-02-14T07:05:34.632Z,7.77
2019-02-14T07:08:02.072Z,7.07
2019-02-14T07:10:29.555Z,8.13
2019-02-14T07:12:56.756Z,7.00
2019-02-14T07:15:24.220Z,8.03
2019-02-14T07:17:51.288Z,7.63
2019-02-14T07:20:18.554Z,7.10
2019-02-14T07:22:45.793Z,7.90
2019-02-14T07:25:12.995Z,8.00
2019-02-14T07:27:40.229Z,7.63
2019-02-14T07:30:10.896Z,7.30
2019-02-14T07:32:38.081Z,7.33
2019-02-14T07:35:05.936Z,8.00
2019-02-14T07:37:32.978Z,6.53
2019-02-14T07:40:00.332Z,7.30
2019-02-14T07:42:27.520Z,5.83
2019-02-14T07:44:54.745Z,8.40
2019-02-14T07:47:21.899Z,7.80
2019-02-14T07:49:49.094Z,6.83
2019-02-14T07:52:24.854Z,6.83
2019-02-14T07:54:45.800Z,7.27
2019-02-14T07:57:13.010Z,6.40
2019-02-14T07:59:40.273Z,7.13
2019-02-14T08:02:07.535Z,8.00
2019-02-14T08:04:34.750Z,7.30
2019-02-14T08:07:02.477Z,6.90
2019-02-14T08:09:29.718Z,8.17
2019-02-14T08:11:56.907Z,8.50
2019-02-14T08:14:24.139Z,10.80
2019-02-14T08:16:51.379Z,8.07
2019-02-14T08:19:18.910Z,8.20
2019-02-14T08:21:46.147Z,8.97
2019-02-14T08:24:13.251Z,7.43
2019-02-14T08:26:40.517Z,8.20
2019-02-14T08:29:07.744Z,9.83
2019-02-14T08:31:36.299Z,19.43
2019-02-14T08:34:03.499Z,12.50
2019-02-14T08:36:30.813Z,13.07
2019-02-14T08:38:57.992Z,11.17
2019-02-14T08:41:25.256Z,9.60
2019-02-14T08:43:52.793Z,9.33
2019-02-14T08:46:20.062Z,9.10
2019-02-14T08:48:47.260Z,8.60
2019-02-14T08:51:14.543Z,9.53
2019-02-14T08:53:41.801Z,9.30
2019-02-14T08:56:09.333Z,8.83
2019-02-14T08:58:36.509Z,9.80
2019-02-14T09:01:03.670Z,8.87
2019-02-14T09:03:30.929Z,10.07
2019-02-14T09:05:58.047Z,8.97
2019-02-14T09:08:25.418Z,9.40
2019-02-14T09:10:52.637Z,9.53
2019-02-14T09:13:19.837Z,9.83
2019-02-14T09:15:47.022Z,9.80
2019-02-14T09:18:14.312Z,9.13
2019-02-14T09:20:41.383Z,9.07
2019-02-14T09:23:08.534Z,10.47
2019-02-14T09:25:35.790Z,9.47
2019-02-14T09:28:03.050Z,9.67
2019-02-14T09:30:30.234Z,10.03
2019-02-14T09:32:58.147Z,10.60
2019-02-14T09:35:27.149Z,10.57
2019-02-14T09:38:02.738Z,11.03
2019-02-14T09:40:23.523Z,10.93
2019-02-14T09:42:50.571Z,11.40
2019-02-14T09:45:17.824Z,11.43
2019-02-14T09:47:44.924Z,11.30
2019-02-14T09:50:12.124Z,10.67
2019-02-14T09:52:39.644Z,10.83
2019-02-14T09:55:07.334Z,11.30
2019-02-14T09:57:34.511Z,10.47
2019-02-14T10:00:01.704Z,10.93
2019-02-14T10:02:30.788Z,10.50
2019-02-14T10:04:57.997Z,10.37
2019-02-14T10:07:25.218Z,10.50
2019-02-14T10:09:52.425Z,10.83
2019-02-14T10:12:19.601Z,10.03
2019-02-14T10:14:46.814Z,10.90
2019-02-14T10:17:22.011Z,11.67
2019-02-14T10:19:43.109Z,10.83
2019-02-14T10:22:10.331Z,9.80
2019-02-14T10:24:37.540Z,9.93
2019-02-14T10:27:04.714Z,9.93
2019-02-14T10:29:32.193Z,10.77
2019-02-14T10:31:59.369Z,10.00
2019-02-14T10:34:26.520Z,10.37
2019-02-14T10:36:53.706Z,10.67
2019-02-14T10:39:20.895Z,10.47
2019-02-14T10:41:48.059Z,11.53
2019-02-14T10:44:15.265Z,10.70
2019-02-14T10:46:42.472Z,9.80
2019-02-14T10:49:09.963Z,11.10
2019-02-14T10:51:37.201Z,10.10
2019-02-14T10:54:04.409Z,11.07
2019-02-14T10:56:31.583Z,9.57
2019-02-14T10:58:59.212Z,11.00
2019-02-14T11:01:26.510Z,10.90
2019-02-14T11:03:53.683Z,11.10
2019-02-14T11:06:20.849Z,10.50
2019-02-14T11:08:48.535Z,11.47
2019-02-14T11:11:15.832Z,10.73
2019-02-14T11:13:43.342Z,10.17
2019-02-14T11:16:10.561Z,10.90
2019-02-14T11:18:43.976Z,11.67
2019-02-14T11:21:06.825Z,11.47
2019-02-14T11:23:34.065Z,11.00
2019-02-14T11:26:01.287Z,11.30
2019-02-14T11:28:28.514Z,11.60
2019-02-14T11:30:55.753Z,8.90
2019-02-14T11:33:22.970Z,10.97
2019-02-14T11:35:50.096Z,9.00
2019-02-14T11:38:17.279Z,9.93
2019-02-14T11:40:44.505Z,9.20
2019-02-14T11:43:11.849Z,9.90
2019-02-14T11:45:39.082Z,9.10
2019-02-14T11:48:06.184Z,9.63
2019-02-14T11:50:33.302Z,9.23
2019-02-14T11:53:02.765Z,9.17
2019-02-14T11:55:29.975Z,8.17
2019-02-14T11:57:57.173Z,8.23
2019-02-14T12:00:24.844Z,7.73
2019-02-14T12:02:55.403Z,8.40
2019-02-14T12:05:21.479Z,8.87
2019-02-14T12:07:48.679Z,8.73
2019-02-14T12:10:16.180Z,8.40
2019-02-14T12:12:43.352Z,8.20
2019-02-14T12:15:10.618Z,7.63
2019-02-14T12:17:37.690Z,8.97
2019-02-14T12:20:05.482Z,8.67
2019-02-14T12:22:32.699Z,8.20
2019-02-14T12:25:00.330Z,8.53
2019-02-14T12:27:27.526Z,9.13
2019-02-14T12:29:54.687Z,10.13
2019-02-14T12:32:21.862Z,10.37
2019-02-14T12:34:48.974Z,9.70
2019-02-14T12:37:16.243Z,10.67
2019-02-14T12:39:43.790Z,9.07
2019-02-14T12:42:11.002Z,9.93
2019-02-14T12:44:38.353Z,9.90
2019-02-14T12:47:05.468Z,10.97
2019-02-14T12:49:32.622Z,10.20
2019-02-14T12:52:00.161Z,9.67
2019-02-14T12:54:27.361Z,11.13
2019-02-14T12:56:54.592Z,11.50
2019-02-14T12:59:21.870Z,10.27
2019-02-14T13:01:49.082Z,9.67
2019-02-14T13:04:16.271Z,10.47
2019-02-14T13:06:43.557Z,9.50
2019-02-14T13:09:19.840Z,11.00
2019-02-14T13:11:39.909Z,10.70
2019-02-14T13:14:07.113Z,11.37
2019-02-14T13:16:34.211Z,10.80
2019-02-14T13:19:01.743Z,10.30
2019-02-14T13:21:29.160Z,9.00
2019-02-14T13:23:56.328Z,11.07
2019-02-14T13:26:23.591Z,10.57
2019-02-14T13:28:50.785Z,10.73
2019-02-14T13:31:17.983Z,10.40
2019-02-14T13:33:45.242Z,11.17
2019-02-14T13:36:12.503Z,9.67
2019-02-14T13:38:39.716Z,10.40
2019-02-14T13:41:06.899Z,9.87
2019-02-14T13:43:34.165Z,9.50
2019-02-14T13:46:01.353Z,11.40
2019-02-14T13:48:28.780Z,10.67
2019-02-14T13:50:55.874Z,10.07
2019-02-14T13:53:23.099Z,9.90
2019-02-14T13:55:50.257Z,10.43
2019-02-14T13:58:17.404Z,10.70
2019-02-14T14:00:44.596Z,11.47
2019-02-14T14:03:11.653Z,9.90
2019-02-14T14:05:38.750Z,11.10
2019-02-14T14:08:05.946Z,11.10
2019-02-14T14:10:33.162Z,11.20
2019-02-14T14:13:00.396Z,12.50
2019-02-14T14:15:27.559Z,11.27
2019-02-14T14:17:54.914Z,12.33
2019-02-14T14:20:22.114Z,10.93
2019-02-14T14:22:49.592Z,11.93
2019-02-14T14:25:16.809Z,10.97
2019-02-14T14:27:47.045Z,10.70
2019-02-14T14:30:14.240Z,10.10
2019-02-14T14:32:41.512Z,10.70
2019-02-14T14:35:10.690Z,10.60
2019-02-14T14:37:38.137Z,10.70
2019-02-14T14:40:06.311Z,9.83
2019-02-14T14:42:55.935Z,11.17
2019-02-14T14:45:44.843Z,10.03
2019-02-14T14:48:20.644Z,10.40
2019-02-14T14:50:47.739Z,11.93
2019-02-14T14:53:14.961Z,9.67
2019-02-14T14:55:42.140Z,10.33
2019-02-14T14:58:11.526Z,10.37
2019-02-14T15:00:38.757Z,9.57
2019-02-14T15:03:05.980Z,10.93
2019-02-14T15:05:33.375Z,10.10
2019-02-14T15:08:00.570Z,11.10
2019-02-14T15:10:27.919Z,10.03
2019-02-14T15:12:55.406Z,11.27
2019-02-14T15:15:22.600Z,10.43
2019-02-14T15:17:49.712Z,9.63
2019-02-14T15:20:16.897Z,11.07
2019-02-14T15:22:44.094Z,10.10
2019-02-14T15:25:11.357Z,10.80
2019-02-14T15:27:38.518Z,11.00
2019-02-14T15:30:05.697Z,10.77
2019-02-14T15:32:34.758Z,10.83
2019-02-14T15:35:02.553Z,11.37
2019-02-14T15:37:29.847Z,10.90
2019-02-14T15:40:08.290Z,11.00
2019-02-14T15:42:26.366Z,10.40
2019-02-14T15:44:53.626Z,9.60
2019-02-14T15:47:20.884Z,12.07
2019-02-14T15:49:49.361Z,14.10
2019-02-14T15:52:16.592Z,12.83
2019-02-14T15:54:43.808Z,13.70
2019-02-14T15:57:10.972Z,11.83
2019-02-14T15:59:40.489Z,12.17
2019-02-14T16:02:08.448Z,11.40
2019-02-14T16:04:35.812Z,11.43
2019-02-14T16:07:03.042Z,12.80
2019-02-14T16:09:30.307Z,11.27
2019-02-14T16:11:57.991Z,13.20
2019-02-14T16:14:25.215Z,13.10
2019-02-14T16:16:52.527Z,13.27
2019-02-14T16:19:19.590Z,13.17
2019-02-14T16:21:46.794Z,12.47
2019-02-14T16:24:14.730Z,13.13
2019-02-14T16:26:43.022Z,11.70
2019-02-14T16:29:10.454Z,12.53
2019-02-14T16:31:38.012Z,12.57
2019-02-14T16:34:05.219Z,12.80
2019-02-14T16:36:32.722Z,12.33
2019-02-14T16:39:01.365Z,11.63
2019-02-14T16:41:28.980Z,13.10
2019-02-14T16:43:56.169Z,11.83
2019-02-14T16:46:23.377Z,12.53
2019-02-14T16:48:50.623Z,11.60
2019-02-14T16:51:17.786Z,13.30
2019-02-14T16:53:45.036Z,13.50
2019-02-14T16:56:12.256Z,10.83
2019-02-14T16:58:39.744Z,11.73
2019-02-14T17:01:06.848Z,12.00
2019-02-14T17:03:34.345Z,11.00
2019-02-14T17:06:01.404Z,12.17
2019-02-14T17:08:28.919Z,9.33
2019-02-14T17:10:56.081Z,11.10
2019-02-14T17:13:23.624Z,11.50
2019-02-14T17:15:50.833Z,11.60
2019-02-14T17:18:18.023Z,12.20
2019-02-14T17:20:45.099Z,12.10
2019-02-14T17:23:12.371Z,11.20
2019-02-14T17:25:39.529Z,13.40
2019-02-14T17:28:06.741Z,12.27
2019-02-14T17:30:33.946Z,12.97
2019-02-14T17:33:01.021Z,12.60
2019-02-14T17:35:28.242Z,12.50
2019-02-14T17:37:55.491Z,12.70
2019-02-14T17:40:22.728Z,12.70
2019-02-14T17:42:50.133Z,12.00
2019-02-14T17:45:17.392Z,13.03
2019-02-14T17:47:44.637Z,13.67
2019-02-14T17:50:11.872Z,11.80
2019-02-14T17:52:39.386Z,11.83
2019-02-14T17:55:06.774Z,11.70
2019-02-14T17:57:33.981Z,11.20
2019-02-14T18:00:01.245Z,10.77
2019-02-14T18:02:28.774Z,11.00
2019-02-14T18:04:55.971Z,9.47
2019-02-14T18:07:23.226Z,10.27
2019-02-14T18:09:50.381Z,9.63
2019-02-14T18:12:17.814Z,9.77
2019-02-14T18:14:45.082Z,11.30
2019-02-14T18:17:12.133Z,9.60
2019-02-14T18:19:39.404Z,10.90
2019-02-14T18:22:07.004Z,12.47
2019-02-14T18:24:34.167Z,13.70
2019-02-14T18:27:01.364Z,11.50
2019-02-14T18:29:28.518Z,10.53
2019-02-14T18:31:56.413Z,12.47
2019-02-14T18:34:23.637Z,11.60
2019-02-14T18:36:51.182Z,11.47
2019-02-14T18:39:18.389Z,12.37
2019-02-14T18:41:45.588Z,12.03
2019-02-14T18:44:12.826Z,11.80
2019-02-14T18:46:39.989Z,12.30
2019-02-14T18:49:07.270Z,13.30
2019-02-14T18:51:34.474Z,13.23
2019-02-14T18:54:01.682Z,13.57
2019-02-14T18:56:29.021Z,13.30
2019-02-14T18:58:56.272Z,13.10
2019-02-14T19:01:23.740Z,14.07
2019-02-14T19:03:50.895Z,14.70
2019-02-14T19:06:18.102Z,14.73
2019-02-14T19:08:45.340Z,14.67
2019-02-14T19:11:15.127Z,13.20
2019-02-14T19:13:41.601Z,15.20
2019-02-14T19:16:08.851Z,14.70
2019-02-14T19:18:36.064Z,14.50
2019-02-14T19:21:03.182Z,14.37
2019-02-14T19:23:30.947Z,15.23
2019-02-14T19:25:58.156Z,15.40
2019-02-14T19:28:25.392Z,13.37
2019-02-14T19:30:52.628Z,15.00
2019-02-14T19:33:19.908Z,12.90
2019-02-14T19:35:46.995Z,15.30
2019-02-14T19:38:14.749Z,14.70
2019-02-14T19:40:42.013Z,13.70
2019-02-14T19:43:09.232Z,15.07
2019-02-14T19:45:36.983Z,14.90
2019-02-14T19:48:04.112Z,14.10
2019-02-14T19:50:31.288Z,14.37
2019-02-14T19:52:58.409Z,13.83
2019-02-14T19:55:25.581Z,13.33
2019-02-14T19:57:52.830Z,15.20
2019-02-14T20:00:20.034Z,14.97
2019-02-14T20:02:47.076Z,14.73
2019-02-14T20:05:14.309Z,15.43
2019-02-14T20:07:41.471Z,14.67
2019-02-14T20:10:09.575Z,14.73
2019-02-14T20:12:37.422Z,15.17
2019-02-14T20:15:06.468Z,15.80
2019-02-14T20:17:33.692Z,15.87
2019-02-14T20:20:01.285Z,15.50
2019-02-14T20:22:28.557Z,15.03
2019-02-14T20:24:55.878Z,14.70
2019-02-14T20:27:23.165Z,14.27
2019-02-14T20:29:50.272Z,13.57
2019-02-14T20:32:17.926Z,14.83
2019-02-14T20:34:45.000Z,13.40
2019-02-14T20:37:12.201Z,13.73
2019-02-14T20:39:39.435Z,16.00
2019-02-14T20:42:06.906Z,14.17
2019-02-14T20:44:34.175Z,15.20
2019-02-14T20:47:01.530Z,14.10
2019-02-14T20:49:28.874Z,12.70
2019-02-14T20:51:56.197Z,13.20
2019-02-14T20:54:23.510Z,12.20
2019-02-14T20:56:50.792Z,13.00
2019-02-14T20:59:17.998Z,12.73
2019-02-14T21:01:45.318Z,12.50
2019-02-14T21:04:12.653Z,14.10
2019-02-14T21:06:39.909Z,10.50
2019-02-14T21:09:07.218Z,12.90
2019-02-14T21:11:34.327Z,12.67
2019-02-14T21:14:01.505Z,12.20
2019-02-14T21:16:28.903Z,10.70
2019-02-14T21:18:56.130Z,11.83
2019-02-14T21:21:23.717Z,11.60
2019-02-14T21:23:50.933Z,12.37
2019-02-14T21:26:18.647Z,11.90
2019-02-14T21:28:45.851Z,10.97
2019-02-14T21:31:13.393Z,11.33
2019-02-14T21:33:40.629Z,11.00
2019-02-14T21:36:07.770Z,12.80
2019-02-14T21:38:34.980Z,11.43
2019-02-14T21:41:02.256Z,11.30
2019-02-14T21:43:29.493Z,12.57
2019-02-14T21:45:56.981Z,11.57
2019-02-14T21:48:24.223Z,11.90
2019-02-14T21:50:51.303Z,12.67
2019-02-14T21:53:18.875Z,12.03
2019-02-14T21:55:46.098Z,13.63
2019-02-14T21:58:13.235Z,14.03
2019-02-14T22:00:40.720Z,12.90
2019-02-14T22:03:08.258Z,14.50
2019-02-14T22:05:35.719Z,11.90
2019-02-14T22:08:03.231Z,12.67
2019-02-14T22:10:30.445Z,12.93
2019-02-14T22:12:57.884Z,12.57
2019-02-14T22:15:25.218Z,12.03
2019-02-14T22:17:52.841Z,11.87
2019-02-14T22:20:20.339Z,12.70
2019-02-14T22:22:47.897Z,12.10
2019-02-14T22:25:15.440Z,12.53
2019-02-14T22:27:42.608Z,12.60
2019-02-14T22:30:14.739Z,13.40
2019-02-14T22:32:42.243Z,13.10
2019-02-14T22:35:09.485Z,13.43
2019-02-14T22:37:36.690Z,14.70
2019-02-14T22:40:03.980Z,12.67
2019-02-14T22:42:31.448Z,13.83
2019-02-14T22:44:58.533Z,13.13
2019-02-14T22:47:25.833Z,12.20
2019-02-14T22:49:52.988Z,12.80
2019-02-14T22:52:20.274Z,14.33
2019-02-14T22:54:47.479Z,14.07
2019-02-14T22:57:14.698Z,13.17
2019-02-14T22:59:41.861Z,13.93
2019-02-14T23:02:09.284Z,11.77
2019-02-14T23:04:36.458Z,12.70
2019-02-14T23:07:03.662Z,12.30
2019-02-14T23:09:30.920Z,14.30
2019-02-14T23:11:58.142Z,11.70
2019-02-14T23:14:25.327Z,11.70
2019-02-14T23:16:52.781Z,12.20
2019-02-14T23:19:19.998Z,12.17
2019-02-14T23:21:47.120Z,11.60
2019-02-14T23:24:14.646Z,12.73
2019-02-14T23:26:41.697Z,13.70
2019-02-14T23:29:08.944Z,11.57
2019-02-14T23:31:36.144Z,11.03
2019-02-14T23:34:03.303Z,11.57
2019-02-14T23:36:30.486Z,11.70
2019-02-14T23:38:57.669Z,11.70
2019-02-14T23:41:24.879Z,12.40
2019-02-14T23:43:52.042Z,11.80
2019-02-14T23:46:19.251Z,11.57
2019-02-14T23:48:46.415Z,10.77
2019-02-14T23:51:13.593Z,11.07
2019-02-14T23:53:40.765Z,11.43
2019-02-14T23:56:07.965Z,11.23
2019-02-14T23:58:35.094Z,11.50
